Time;durP1;ratioP1;P1;durP2;ratioP2;P2;SDS_P1;SDS_P2;PMS_P1;PMS_P2;Temp;Humidity;BMP_temperature;BMP_pressure;BME280_temperature;BME280_humidity;BME280_pressure;Samples;Min_cycle;Max_cycle;Signal;HPM_P1;HPM_P2
2023/05/22 03:53:06;;;;;;;8.35;5.85;;;;;;;15.47;100.00;94520.09;4909049;29;20062;-92
2023/05/22 03:55:31;;;;;;;6.78;6.05;;;;;;;15.87;100.00;94520.59;4895924;29;20043;-91
2023/05/22 03:57:57;;;;;;;6.57;5.75;;;;;;;16.89;100.00;94506.91;4878040;29;20032;-91
2023/05/22 04:00:22;;;;;;;6.35;4.72;;;;;;;17.12;100.00;94501.78;4911760;29;20458;-90
2023/05/22 04:02:49;;;;;;;5.20;4.70;;;;;;;17.71;98.74;94500.16;4904870;29;20028;-90
2023/05/22 04:05:15;;;;;;;9.07;4.50;;;;;;;17.96;93.67;94500.75;4911019;29;20024;-88
2023/05/22 04:07:40;;;;;;;4.60;4.20;;;;;;;16.32;100.00;94503.72;4879290;29;20501;-95
2023/05/22 04:10:06;;;;;;;5.72;5.10;;;;;;;16.92;100.00;94508.31;4904078;29;20028;-92
2023/05/22 04:12:32;;;;;;;5.40;4.97;;;;;;;18.14;95.13;94498.00;4887742;29;20028;-89
2023/05/22 04:14:57;;;;;;;5.20;4.20;;;;;;;18.11;93.49;94490.59;4894333;29;20043;-93
2023/05/22 04:17:30;;;;;;;5.95;5.43;;;;;;;16.77;100.00;94511.28;4912025;29;20032;-95
2023/05/22 04:19:57;;;;;;;6.53;5.93;;;;;;;16.88;100.00;94496.69;4894854;29;20036;-93
2023/05/22 04:22:22;;;;;;;5.57;4.28;;;;;;;18.42;94.10;94492.88;4895096;29;20031;-94
2023/05/22 04:24:48;;;;;;;6.32;4.47;;;;;;;19.49;84.19;94497.63;4894980;29;20027;-92
2023/05/22 04:27:14;;;;;;;4.07;3.80;;;;;;;16.58;100.00;94504.47;4893683;29;20050;-95
2023/05/22 04:29:40;;;;;;;5.22;4.47;;;;;;;18.79;94.69;94505.72;4879748;29;20036;-92
2023/05/22 04:32:09;;;;;;;4.28;3.97;;;;;;;19.74;83.10;94492.78;4878292;29;20043;-93
2023/05/22 04:34:36;;;;;;;8.90;4.88;;;;;;;17.08;100.00;94516.31;4879342;29;20047;-92
2023/05/22 04:37:02;;;;;;;5.65;4.47;;;;;;;16.16;100.00;94524.38;4877720;29;20578;-93
2023/05/22 04:39:28;;;;;;;6.35;4.75;;;;;;;16.38;100.00;94516.91;4899344;29;20079;-93
2023/05/22 04:41:53;;;;;;;5.72;3.63;;;;;;;19.22;90.58;94510.50;4878209;29;20056;-90
2023/05/22 04:44:21;;;;;;;10.45;4.70;;;;;;;20.04;83.49;94506.41;4891871;29;20085;-86
2023/05/22 04:46:47;;;;;;;7.70;3.83;;;;;;;21.17;73.35;94513.75;4879566;29;20039;-92
2023/05/22 04:49:13;;;;;;;6.22;4.40;;;;;;;21.98;66.04;94512.72;4899205;29;20034;-89
2023/05/22 04:51:38;;;;;;;6.40;4.35;;;;;;;21.16;68.90;94522.69;4895013;29;20064;-92
2023/05/22 04:54:04;;;;;;;5.18;3.45;;;;;;;22.06;66.51;94499.06;4908618;29;20035;-93
2023/05/22 04:56:30;;;;;;;4.95;4.40;;;;;;;21.50;69.17;94502.25;4876738;29;20028;-86
2023/05/22 04:58:56;;;;;;;5.63;5.10;;;;;;;21.39;70.17;94505.81;4890144;29;20503;-83
2023/05/22 05:01:21;;;;;;;8.35;5.45;;;;;;;21.77;68.21;94502.22;4874762;29;20119;-89
2023/05/22 05:03:47;;;;;;;7.28;4.45;;;;;;;23.52;59.87;94490.28;4876716;29;20156;-85
2023/05/22 05:06:13;;;;;;;5.53;4.18;;;;;;;23.57;58.19;94495.56;4874438;29;20032;-87
2023/05/22 05:08:38;;;;;;;4.45;3.70;;;;;;;23.48;59.73;94497.94;4886023;29;20668;-86
2023/05/22 05:11:04;;;;;;;4.07;3.67;;;;;;;23.67;58.87;94505.34;4890234;29;20036;-87
2023/05/22 05:13:30;;;;;;;12.23;4.60;;;;;;;24.15;56.53;94491.66;4871688;29;20909;-87
2023/05/22 05:15:58;;;;;;;8.30;3.72;;;;;;;24.11;58.49;94498.53;4903258;29;20028;-89
2023/05/22 05:18:23;;;;;;;5.90;3.80;;;;;;;25.26;54.82;94501.97;4889654;29;20066;-83
2023/05/22 05:20:49;;;;;;;7.70;3.92;;;;;;;26.69;51.92;94492.66;4872729;29;20131;-85
2023/05/22 05:23:14;;;;;;;3.88;3.58;;;;;;;25.93;52.46;94508.47;4872930;29;20028;-84
2023/05/22 05:25:40;;;;;;;3.95;3.30;;;;;;;26.08;53.04;94505.69;4873507;29;20119;-85
2023/05/22 05:28:09;;;;;;;3.72;3.38;;;;;;;26.45;52.77;94505.94;4906270;29;20132;-86
2023/05/22 05:30:39;;;;;;;4.25;3.88;;;;;;;24.34;59.37;94497.97;4890277;29;20099;-87
2023/05/22 05:33:05;;;;;;;6.05;4.30;;;;;;;23.22;66.69;94501.53;4889386;29;20028;-87
2023/05/22 05:35:30;;;;;;;5.10;4.43;;;;;;;21.71;74.91;94513.75;4890469;29;20032;-85
2023/05/22 05:37:57;;;;;;;4.82;4.40;;;;;;;21.86;73.32;94512.06;4889303;29;20024;-87
2023/05/22 05:40:22;;;;;;;5.15;3.90;;;;;;;24.97;59.84;94506.34;4907405;29;20095;-85
2023/05/22 05:42:48;;;;;;;5.60;4.10;;;;;;;27.14;52.11;94500.16;4871485;29;20088;-88
2023/05/22 05:45:14;;;;;;;4.10;3.75;;;;;;;28.37;49.06;94505.34;4903518;29;20039;-87
2023/05/22 05:47:39;;;;;;;6.63;3.78;;;;;;;29.05;46.19;94510.81;4906888;29;20285;-84
2023/05/22 05:50:05;;;;;;;6.43;3.88;;;;;;;28.40;47.66;94504.75;4905792;29;20027;-83
2023/05/22 05:52:32;;;;;;;3.80;3.47;;;;;;;29.47;45.20;94505.16;4871279;29;20412;-82
2023/05/22 05:54:59;;;;;;;3.80;3.50;;;;;;;31.21;42.43;94512.94;4889236;29;20061;-82
2023/05/22 05:57:28;;;;;;;4.75;3.58;;;;;;;31.10;41.60;94510.88;4891478;29;20872;-88
2023/05/22 05:59:53;;;;;;;4.10;3.40;;;;;;;31.66;40.95;94516.22;4889780;29;20036;-84
2023/05/22 06:02:19;;;;;;;4.00;3.60;;;;;;;33.11;38.23;94517.19;4887984;29;20028;-84
2023/05/22 06:04:48;;;;;;;5.70;3.50;;;;;;;32.83;39.11;94514.13;4906515;29;20664;-83
2023/05/22 06:07:14;;;;;;;5.40;3.20;;;;;;;33.09;36.80;94510.56;4902883;29;20039;-83
2023/05/22 06:09:39;;;;;;;5.18;3.55;;;;;;;33.74;36.30;94518.13;4888855;29;20443;-87
2023/05/22 06:12:05;;;;;;;4.25;3.20;;;;;;;31.24;37.10;94515.00;4889860;29;20038;-89
2023/05/22 06:14:31;;;;;;;5.15;3.20;;;;;;;32.60;36.45;94523.50;4890872;29;20510;-89
2023/05/22 06:16:57;;;;;;;3.97;3.58;;;;;;;32.32;38.06;94516.88;4873615;29;20059;-86
2023/05/22 06:19:22;;;;;;;4.90;4.13;;;;;;;32.72;38.88;94523.59;4890230;29;20035;-84
2023/05/22 06:21:47;;;;;;;5.38;3.70;;;;;;;31.60;39.44;94525.50;4907404;29;20040;-85
2023/05/22 06:24:13;;;;;;;6.97;4.10;;;;;;;28.94;42.79;94525.41;4884939;29;20075;-85
2023/05/22 06:26:38;;;;;;;4.05;3.75;;;;;;;28.49;42.95;94517.13;4883097;29;20123;-88
2023/05/22 06:29:05;;;;;;;5.53;3.58;;;;;;;28.41;44.44;94512.47;4902759;29;20382;-86
2023/05/22 06:31:34;;;;;;;6.22;3.63;;;;;;;27.83;45.15;94517.38;4869162;29;20529;-87
2023/05/22 06:33:59;;;;;;;8.25;3.20;;;;;;;28.82;42.75;94517.09;4871237;29;20510;-83
2023/05/22 06:36:25;;;;;;;6.63;3.45;;;;;;;30.37;39.75;94514.88;4893676;29;20036;-87
2023/05/22 06:38:53;;;;;;;7.68;3.50;;;;;;;31.85;38.23;94508.66;4877498;29;20044;-89
2023/05/22 06:41:18;;;;;;;3.45;2.88;;;;;;;31.12;39.75;94503.31;4889913;29;20123;-85
2023/05/22 06:43:44;;;;;;;4.88;2.83;;;;;;;29.59;40.76;94516.09;4872956;29;20135;-85
2023/05/22 06:46:09;;;;;;;3.88;3.53;;;;;;;28.59;42.73;94511.63;4889428;29;20029;-88
2023/05/22 06:48:35;;;;;;;3.88;3.22;;;;;;;27.31;45.31;94509.53;4870887;29;20484;-86
2023/05/22 06:51:01;;;;;;;4.00;3.60;;;;;;;27.05;48.04;94507.19;4891938;29;20055;-87
2023/05/22 06:53:26;;;;;;;5.18;3.90;;;;;;;27.12;47.80;94506.84;4877590;29;20047;-85
2023/05/22 06:55:52;;;;;;;7.80;3.67;;;;;;;25.68;51.39;94517.41;4876146;29;20032;-86
2023/05/22 06:58:17;;;;;;;5.68;3.33;;;;;;;25.00;51.93;94519.03;4893002;29;20091;-85
2023/05/22 07:00:43;;;;;;;3.42;3.13;;;;;;;24.06;55.09;94519.69;4912505;29;20058;-88
2023/05/22 07:03:08;;;;;;;4.47;3.60;;;;;;;23.70;55.96;94520.69;4893202;29;20047;-86
2023/05/22 07:05:33;;;;;;;4.45;3.80;;;;;;;23.63;57.40;94520.19;4878333;29;20035;-87
2023/05/22 07:08:00;;;;;;;5.10;3.92;;;;;;;23.48;55.80;94518.28;4891453;29;20047;-85
2023/05/22 07:10:26;;;;;;;5.70;3.63;;;;;;;22.75;60.15;94521.97;4875885;29;20384;-88
2023/05/22 07:12:52;;;;;;;4.95;3.75;;;;;;;23.02;59.07;94514.69;4891655;29;20071;-82
2023/05/22 07:15:17;;;;;;;6.13;3.20;;;;;;;23.12;59.47;94512.06;4892772;29;20028;-84
2023/05/22 07:17:43;;;;;;;4.05;3.25;;;;;;;22.41;57.23;94506.41;4878126;29;20038;-85
2023/05/22 07:20:10;;;;;;;6.07;3.92;;;;;;;22.31;63.72;94506.38;4892503;29;20033;-87
2023/05/22 07:22:36;;;;;;;8.00;3.78;;;;;;;22.14;67.65;94513.63;4894370;29;20032;-89
2023/05/22 07:25:02;;;;;;;7.80;4.20;;;;;;;22.06;67.26;94512.25;4877211;29;20109;-87
2023/05/22 07:27:27;;;;;;;4.18;3.67;;;;;;;22.46;63.00;94511.72;4893236;29;20041;-91
2023/05/22 07:29:52;;;;;;;4.85;3.88;;;;;;;21.75;65.51;94509.56;4893196;29;20498;-85
2023/05/22 07:32:18;;;;;;;7.43;4.32;;;;;;;21.76;68.43;94514.63;4878163;29;20463;-88
2023/05/22 07:34:44;;;;;;;4.40;3.65;;;;;;;21.82;68.04;94513.59;4876764;29;20475;-87
2023/05/22 07:37:11;;;;;;;6.57;4.95;;;;;;;21.97;71.45;94521.66;4904367;29;20186;-89
2023/05/22 07:39:37;;;;;;;5.55;4.40;;;;;;;21.92;73.70;94516.38;4910739;29;20096;-87
2023/05/22 07:42:03;;;;;;;5.50;3.65;;;;;;;21.73;66.61;94514.31;4876885;29;20024;-87
2023/05/22 07:44:29;;;;;;;8.60;3.65;;;;;;;21.92;64.57;94508.44;4874262;29;20035;-85
2023/05/22 07:46:55;;;;;;;5.90;3.50;;;;;;;21.99;64.35;94511.66;4872693;29;20017;-87
2023/05/22 07:49:22;;;;;;;5.55;3.50;;;;;;;22.00;68.82;94507.19;4884174;29;20036;-85
2023/05/22 07:51:48;;;;;;;7.07;3.85;;;;;;;22.10;60.19;94509.91;4907976;29;20044;-86
2023/05/22 07:54:14;;;;;;;6.18;3.00;;;;;;;21.78;57.11;94514.34;4892162;29;20044;-87
2023/05/22 07:56:44;;;;;;;5.03;3.42;;;;;;;22.19;58.61;94505.72;4891616;29;20083;-86
2023/05/22 07:59:10;;;;;;;5.97;3.60;;;;;;;22.01;58.85;94499.03;4875492;29;20043;-84
2023/05/22 08:01:37;;;;;;;6.47;3.55;;;;;;;22.14;60.45;94499.63;4891371;29;20035;-85
2023/05/22 08:04:03;;;;;;;5.53;3.67;;;;;;;22.01;59.88;94504.31;4891489;29;20028;-85
2023/05/22 08:06:29;;;;;;;4.75;3.42;;;;;;;22.04;57.30;94510.91;4909161;29;20449;-84
2023/05/22 08:08:55;;;;;;;6.85;3.38;;;;;;;22.05;56.97;94504.59;4890654;29;20020;-85
2023/05/22 08:11:20;;;;;;;6.40;3.28;;;;;;;22.24;56.88;94507.63;4876307;29;20020;-84
2023/05/22 08:13:47;;;;;;;9.95;3.83;;;;;;;22.63;56.93;94500.22;4891612;29;20028;-87
2023/05/22 08:16:12;;;;;;;11.35;3.90;;;;;;;22.81;57.42;94502.44;4875738;29;20746;-82
2023/05/22 08:18:38;;;;;;;5.07;3.38;;;;;;;22.55;52.05;94510.19;4891695;29;20036;-87
2023/05/22 08:21:03;;;;;;;5.72;3.10;;;;;;;22.45;52.98;94504.84;4893259;29;20028;-88
2023/05/22 08:23:29;;;;;;;4.95;3.45;;;;;;;22.62;55.29;94503.91;4885636;29;20024;-87
2023/05/22 08:25:55;;;;;;;4.82;2.75;;;;;;;22.05;55.73;94510.66;4892376;29;20065;-88
2023/05/22 08:28:21;;;;;;;3.30;2.63;;;;;;;22.35;54.97;94498.72;4892872;29;20495;-86
2023/05/22 08:30:46;;;;;;;23.50;4.10;;;;;;;22.79;55.13;94502.72;4909275;29;20043;-88
2023/05/22 08:33:12;;;;;;;3.92;2.85;;;;;;;22.88;53.65;94505.66;4892582;29;20030;-86
2023/05/22 08:35:37;;;;;;;8.65;2.90;;;;;;;23.09;51.10;94505.47;4910645;29;20542;-88
2023/05/22 08:38:03;;;;;;;4.85;2.78;;;;;;;22.97;52.22;94509.38;4892328;29;20115;-87
2023/05/22 08:40:36;;;;;;;3.25;2.70;;;;;;;23.40;52.69;94505.59;4892198;29;20035;-87
2023/05/22 08:43:03;;;;;;;4.78;3.30;;;;;;;23.14;53.89;94504.69;4891974;29;20057;-86
2023/05/22 08:45:32;;;;;;;3.70;2.58;;;;;;;23.48;52.65;94497.94;4876258;29;20052;-87
2023/05/22 08:47:59;;;;;;;4.22;2.63;;;;;;;23.73;51.36;94497.16;4876114;29;20094;-86
2023/05/22 08:50:24;;;;;;;4.43;2.45;;;;;;;23.73;49.59;94499.03;4878256;29;20032;-89
2023/05/22 08:52:51;;;;;;;9.40;2.95;;;;;;;23.70;52.71;94492.41;4890654;29;20052;-86
2023/05/22 08:55:18;;;;;;;5.13;2.65;;;;;;;23.42;49.96;94495.53;4888569;29;20032;-86
2023/05/22 08:57:44;;;;;;;2.53;2.30;;;;;;;23.42;50.16;94491.03;4893802;29;20024;-90
2023/05/22 09:00:11;;;;;;;3.15;2.40;;;;;;;22.60;50.53;94496.25;4884549;29;20032;-90
2023/05/22 09:02:40;;;;;;;6.28;2.70;;;;;;;22.80;50.78;94491.06;4891648;29;20392;-89
2023/05/22 09:05:07;;;;;;;3.60;2.10;;;;;;;22.77;49.29;94486.31;4903521;29;20058;-89
2023/05/22 09:07:32;;;;;;;3.47;2.28;;;;;;;22.76;47.74;94483.94;4875554;29;20083;-91
2023/05/22 09:09:58;;;;;;;4.68;2.40;;;;;;;22.68;46.36;94494.97;4891394;29;20044;-88
2023/05/22 09:12:25;;;;;;;7.53;2.83;;;;;;;21.90;49.35;94480.72;4874974;29;20028;-89
2023/05/22 09:14:51;;;;;;;8.05;2.75;;;;;;;22.30;50.23;94491.56;4876382;29;20885;-89
2023/05/22 09:17:19;;;;;;;4.10;2.00;;;;;;;22.68;49.68;94489.69;4890586;29;20035;-83
2023/05/22 09:19:45;;;;;;;3.83;2.20;;;;;;;22.09;45.41;94492.47;4881234;29;20034;-80
2023/05/22 09:22:11;;;;;;;5.05;2.97;;;;;;;21.89;43.95;94489.69;4871239;29;20111;-86
2023/05/22 09:24:37;;;;;;;8.18;2.65;;;;;;;21.86;43.73;94479.63;4901964;29;20032;-90
2023/05/22 09:27:05;;;;;;;5.53;2.47;;;;;;;23.20;46.46;94492.28;4890204;29;20063;-87
2023/05/22 09:29:31;;;;;;;2.92;2.20;;;;;;;22.69;46.16;94488.66;4890057;29;20028;-92
2023/05/22 09:31:58;;;;;;;7.45;2.65;;;;;;;22.47;47.47;94492.22;4872635;29;20043;-89
2023/05/22 09:34:27;;;;;;;2.88;2.00;;;;;;;22.17;45.22;94491.22;4889839;29;20032;-91
2023/05/22 09:37:00;;;;;;;5.57;2.13;;;;;;;22.51;47.05;94488.00;4891167;29;20016;-89
2023/05/22 09:39:38;;;;;;;4.72;2.88;;;;;;;22.68;45.49;94482.56;4889252;29;20550;-84
2023/05/22 09:42:04;;;;;;;5.13;3.08;;;;;;;22.64;43.37;94480.66;4894212;29;20567;-86
2023/05/22 09:44:29;;;;;;;8.40;2.55;;;;;;;22.14;44.77;94492.53;4890646;29;20040;-90
2023/05/22 09:46:55;;;;;;;5.25;2.45;;;;;;;22.32;45.16;94484.19;4874352;29;20039;-89
2023/05/22 09:49:20;;;;;;;5.50;2.50;;;;;;;22.90;49.50;94495.59;4889767;29;20048;-91
2023/05/22 09:51:46;;;;;;;5.85;2.53;;;;;;;22.15;47.60;94495.97;4889622;29;20115;-85
2023/05/22 09:54:13;;;;;;;2.58;2.28;;;;;;;22.16;46.82;94500.16;4888346;29;20023;-84
2023/05/22 09:56:39;;;;;;;8.00;3.00;;;;;;;22.67;54.35;94504.75;4873586;29;20663;-89
2023/05/22 09:59:08;;;;;;;7.47;3.17;;;;;;;22.79;60.04;94497.44;4889269;29;20044;-85
2023/05/22 10:01:34;;;;;;;5.10;3.15;;;;;;;23.02;64.00;94504.13;4890065;29;20024;-91
2023/05/22 10:04:00;;;;;;;5.60;3.30;;;;;;;22.40;64.59;94496.91;4877399;29;20155;-94
2023/05/22 10:06:27;;;;;;;4.93;3.63;;;;;;;21.90;67.63;94497.34;4874924;29;20032;-92
2023/05/22 10:09:01;;;;;;;4.38;3.70;;;;;;;21.44;72.20;94498.78;4890316;29;20900;-86
2023/05/22 10:11:28;;;;;;;6.40;4.03;;;;;;;21.17;74.24;94484.78;4889799;29;20051;-92
2023/05/22 10:13:54;;;;;;;4.35;3.60;;;;;;;21.11;75.00;94496.31;4874255;29;20040;-87
2023/05/22 10:16:20;;;;;;;5.65;4.20;;;;;;;20.99;80.19;94511.41;4874123;29;20043;-90
2023/05/22 10:18:47;;;;;;;5.82;4.35;;;;;;;20.55;80.90;94504.53;4873962;29;20499;-83
2023/05/22 10:21:14;;;;;;;5.38;4.03;;;;;;;20.46;81.00;94509.41;4890036;29;20043;-92
2023/05/22 10:23:40;;;;;;;13.75;4.38;;;;;;;20.37;83.52;94513.50;4889762;29;20122;-89
2023/05/22 10:26:06;;;;;;;6.65;3.72;;;;;;;20.02;83.76;94516.38;4872269;29;20063;-93
2023/05/22 10:28:39;;;;;;;4.72;4.20;;;;;;;20.09;84.77;94522.25;4889102;29;20457;-92
2023/05/22 10:31:16;;;;;;;10.20;3.97;;;;;;;19.94;87.02;94508.84;4874232;29;20057;-85
2023/05/22 10:33:48;;;;;;;6.70;4.47;;;;;;;19.75;90.96;94524.06;4888846;29;20028;-86
2023/05/22 10:36:46;;;;;;;5.30;3.70;;;;;;;19.75;93.61;94516.19;4873904;29;20028;-91
2023/05/22 10:39:31;;;;;;;4.68;3.95;;;;;;;19.29;85.69;94519.84;4905923;29;20163;-86
2023/05/22 10:41:58;;;;;;;6.10;3.25;;;;;;;18.35;69.01;94536.78;4889193;29;20040;-88
2023/05/22 10:44:24;;;;;;;9.38;3.55;;;;;;;18.09;65.44;94525.94;4889949;29;20430;-89
2023/05/22 11:17:07;;;;;;;2.42;2.20;;;;;;;18.26;100.00;94551.28;5127180;27;20386;-79
2023/05/22 11:19:32;;;;;;;3.38;2.17;;;;;;;18.35;100.00;94552.53;5108741;28;20031;-79
2023/05/22 11:34:24;;;;;;;4.57;3.10;;;;;;;18.67;100.00;94558.22;5106620;27;20387;-83
2023/05/22 11:36:51;;;;;;;3.70;2.58;;;;;;;18.62;98.04;94559.94;5088277;28;20119;-85
2023/05/22 11:39:17;;;;;;;2.92;2.67;;;;;;;18.80;93.19;94558.00;5087889;28;20020;-84
2023/05/22 11:41:43;;;;;;;4.20;2.45;;;;;;;18.91;92.30;94561.63;5106982;28;20030;-83
2023/05/22 11:44:08;;;;;;;2.05;1.92;;;;;;;19.02;88.76;94558.16;5087410;28;20080;-83
2023/05/22 11:46:34;;;;;;;9.05;4.80;;;;;;;18.68;83.96;94549.34;5080947;28;20396;-85
2023/05/22 11:49:00;;;;;;;3.40;3.08;;;;;;;18.68;84.10;94549.34;5067426;28;20536;-82
2023/05/22 11:51:27;;;;;;;2.60;2.38;;;;;;;18.77;83.74;94539.28;5067946;28;20044;-85
2023/05/22 11:53:52;;;;;;;4.80;2.55;;;;;;;18.81;84.55;94550.91;5067872;28;20028;-89
2023/05/22 11:56:21;;;;;;;3.22;2.22;;;;;;;18.78;83.98;94546.13;5086092;28;20096;-82
2023/05/22 11:58:48;;;;;;;3.22;2.92;;;;;;;18.85;83.18;94544.16;5086269;28;20028;-84
2023/05/22 12:01:14;;;;;;;4.47;4.07;;;;;;;19.05;88.84;94536.69;5085248;28;20028;-84
2023/05/22 12:03:39;;;;;;;3.10;2.80;;;;;;;19.32;85.73;94536.94;5085802;28;20028;-85
2023/05/22 12:06:07;;;;;;;2.75;2.55;;;;;;;19.13;86.02;94528.47;5085028;28;20448;-82
2023/05/22 12:08:32;;;;;;;3.60;2.10;;;;;;;19.09;84.58;94531.78;5085782;28;20016;-85
2023/05/22 12:10:58;;;;;;;5.63;2.80;;;;;;;19.31;84.51;94524.84;5066586;28;20086;-84
2023/05/22 12:13:26;;;;;;;3.30;2.80;;;;;;;19.33;82.75;94526.19;5051094;28;20028;-82
2023/05/22 12:15:58;;;;;;;4.00;3.65;;;;;;;19.43;83.03;94528.25;5067598;28;20065;-85
2023/05/22 12:18:24;;;;;;;4.05;2.80;;;;;;;18.89;83.07;94522.47;5066887;28;20079;-82
2023/05/22 12:20:56;;;;;;;6.30;2.90;;;;;;;19.36;84.09;94514.44;5067903;28;20473;-86
2023/05/22 12:23:25;;;;;;;2.95;2.65;;;;;;;19.39;82.20;94514.75;5069790;28;20031;-84
2023/05/22 12:26:03;;;;;;;3.03;2.50;;;;;;;19.46;79.00;94525.13;5084450;28;20034;-84
2023/05/22 12:28:32;;;;;;;6.15;3.40;;;;;;;19.72;78.66;94523.75;5083430;28;20031;-81
2023/05/22 12:30:57;;;;;;;4.32;3.13;;;;;;;19.69;80.63;94511.88;5068072;28;20030;-84
2023/05/22 12:33:27;;;;;;;3.30;3.00;;;;;;;19.85;82.53;94523.44;5091275;28;20048;-85
2023/05/22 12:35:53;;;;;;;5.25;2.50;;;;;;;19.88;84.51;94530.84;5069514;28;20472;-85
2023/05/22 12:38:21;;;;;;;2.92;2.42;;;;;;;19.60;83.18;94536.97;5071378;28;20024;-85
2023/05/22 12:40:48;;;;;;;3.13;2.60;;;;;;;19.58;88.79;94528.53;5069049;28;20023;-85
2023/05/22 12:43:13;;;;;;;4.00;2.83;;;;;;;19.89;84.52;94520.13;5083354;28;20063;-87
2023/05/22 12:45:41;;;;;;;5.35;2.78;;;;;;;20.11;77.95;94514.13;5069278;28;20496;-86
2023/05/22 12:48:07;;;;;;;3.00;2.57;;;;;;;20.37;80.26;94510.84;5075854;28;20119;-85
2023/05/22 12:50:34;;;;;;;2.55;2.28;;;;;;;20.16;79.01;94517.66;5068309;28;20025;-85
2023/05/22 12:53:02;;;;;;;2.80;2.17;;;;;;;20.33;79.42;94507.91;5056236;28;20082;-86
2023/05/22 12:55:28;;;;;;;2.65;2.45;;;;;;;20.39;77.37;94506.16;5066744;28;20070;-84
2023/05/22 12:57:53;;;;;;;2.70;2.15;;;;;;;20.05;72.92;94504.56;5050581;28;20537;-88
2023/05/22 13:00:19;;;;;;;2.95;2.60;;;;;;;20.05;74.14;94500.09;5070641;28;20048;-84
2023/05/22 13:02:44;;;;;;;2.95;2.30;;;;;;;20.17;79.96;94492.91;5062537;28;20021;-87
2023/05/22 13:05:10;;;;;;;3.33;2.30;;;;;;;20.18;78.46;94494.53;5056178;28;20036;-86
2023/05/22 13:07:36;;;;;;;2.83;2.63;;;;;;;20.11;79.55;94493.09;5069511;28;20468;-90
2023/05/22 13:10:03;;;;;;;4.15;2.20;;;;;;;19.96;84.41;94493.66;5056934;28;20117;-86
2023/05/22 13:12:30;;;;;;;2.95;2.55;;;;;;;19.89;82.07;94488.56;5073538;28;20504;-86
2023/05/22 13:14:59;;;;;;;3.35;2.38;;;;;;;19.84;80.80;94492.97;5067233;28;20505;-84
2023/05/22 13:17:25;;;;;;;3.63;2.67;;;;;;;20.15;83.00;94489.75;5050278;28;20089;-87
2023/05/22 13:19:51;;;;;;;2.55;2.35;;;;;;;20.23;79.05;94491.16;5075047;28;20151;-88
2023/05/22 13:22:17;;;;;;;3.40;2.58;;;;;;;20.75;77.67;94484.53;5070839;28;20042;-87
2023/05/22 13:24:42;;;;;;;2.35;2.10;;;;;;;20.94;75.83;94471.84;5074002;28;20024;-80
2023/05/22 13:27:08;;;;;;;4.57;3.08;;;;;;;20.86;68.27;94474.91;5064185;28;20017;-82
2023/05/22 13:29:33;;;;;;;5.32;3.20;;;;;;;21.09;66.29;94481.75;5065933;28;20621;-80
2023/05/22 13:32:00;;;;;;;3.92;2.83;;;;;;;21.45;68.12;94473.97;5069725;28;20544;-84
2023/05/22 13:34:25;;;;;;;5.70;3.08;;;;;;;21.40;65.40;94471.31;5063930;28;20063;-81
2023/05/22 13:36:51;;;;;;;5.15;3.25;;;;;;;21.43;64.04;94454.19;5074038;28;20063;-83
2023/05/22 13:39:16;;;;;;;4.53;3.00;;;;;;;21.65;61.99;94448.84;5067160;28;20043;-83
2023/05/22 13:41:42;;;;;;;3.08;2.88;;;;;;;21.64;60.34;94444.63;5052940;28;20040;-82
2023/05/22 13:44:07;;;;;;;4.38;3.03;;;;;;;21.70;59.47;94448.91;5065416;28;20444;-83
2023/05/22 13:46:33;;;;;;;3.15;2.78;;;;;;;21.65;65.28;94443.56;5061418;28;20095;-84
2023/05/22 13:48:58;;;;;;;6.00;2.75;;;;;;;21.81;69.24;94432.09;5065007;28;20594;-84
2023/05/22 13:51:24;;;;;;;3.47;3.08;;;;;;;21.84;67.61;94444.78;5064214;28;20035;-82
2023/05/22 13:53:49;;;;;;;5.93;3.17;;;;;;;21.85;72.64;94436.63;5067021;28;20085;-85
2023/05/22 13:56:15;;;;;;;8.52;2.85;;;;;;;22.15;65.52;94438.72;5062104;28;20028;-85
2023/05/22 13:58:40;;;;;;;4.10;2.45;;;;;;;22.10;59.45;94443.13;5070170;28;20020;-83
2023/05/22 14:01:06;;;;;;;3.75;2.90;;;;;;;22.04;58.22;94437.03;5063563;28;20025;-83
2023/05/22 14:03:31;;;;;;;6.75;3.10;;;;;;;21.85;70.93;94441.09;5065899;28;20659;-85
2023/05/22 14:05:57;;;;;;;6.15;3.00;;;;;;;20.89;81.01;94429.66;5072497;28;20036;-85
2023/05/22 14:08:23;;;;;;;6.10;3.05;;;;;;;20.77;84.95;94448.22;5048555;28;20021;-87
2023/05/22 14:10:49;;;;;;;3.00;2.70;;;;;;;20.33;84.75;94455.31;5062596;28;20032;-83
2023/05/22 14:13:14;;;;;;;7.78;3.40;;;;;;;20.18;88.95;94455.06;5054165;28;20102;-86
2023/05/22 14:15:41;;;;;;;6.10;3.00;;;;;;;20.00;90.61;94452.72;5056106;28;20036;-87
2023/05/22 14:18:06;;;;;;;4.68;3.25;;;;;;;19.90;93.26;94465.69;5051674;28;20043;-88
2023/05/22 14:20:32;;;;;;;8.40;4.20;;;;;;;19.60;97.58;94466.00;5069246;28;20497;-93
2023/05/22 14:22:57;;;;;;;6.82;3.42;;;;;;;19.60;99.79;94467.84;5063544;28;20094;-88
2023/05/22 14:25:23;;;;;;;4.50;3.65;;;;;;;19.60;100.00;94454.69;5061886;28;20032;-85
2023/05/22 14:27:49;;;;;;;5.25;3.30;;;;;;;19.52;99.73;94458.53;5062646;28;20028;-87
2023/05/22 14:30:14;;;;;;;5.40;3.60;;;;;;;19.43;99.33;94468.63;5057918;28;20032;-86
2023/05/22 14:32:40;;;;;;;5.10;3.45;;;;;;;19.45;99.95;94476.28;5062912;28;20440;-88
2023/05/22 14:35:06;;;;;;;5.32;3.22;;;;;;;19.23;99.95;94473.47;5063485;28;20078;-91
2023/05/22 14:37:31;;;;;;;4.00;3.63;;;;;;;18.95;100.00;94466.41;5045672;28;20103;-87
2023/05/22 14:39:57;;;;;;;3.83;3.53;;;;;;;18.95;100.00;94476.13;5056390;28;20386;-88
2023/05/22 14:42:22;;;;;;;5.85;3.70;;;;;;;18.76;100.00;94472.06;5062274;28;20394;-90
2023/05/22 14:44:48;;;;;;;3.97;3.60;;;;;;;18.41;100.00;94470.31;5064983;28;20036;-87
2023/05/22 14:47:13;;;;;;;4.40;3.70;;;;;;;18.20;100.00;94483.22;5064504;28;20043;-89
2023/05/22 14:49:39;;;;;;;3.83;3.40;;;;;;;17.92;100.00;94504.06;5060337;28;20040;-91
2023/05/22 14:52:04;;;;;;;6.10;3.67;;;;;;;17.92;100.00;94507.47;5055971;28;20031;-88
2023/05/22 14:54:30;;;;;;;9.93;3.90;;;;;;;17.59;100.00;94526.34;5050278;28;20020;-91
2023/05/22 14:56:55;;;;;;;5.45;3.85;;;;;;;17.25;100.00;94532.22;5061778;28;20067;-87
2023/05/22 14:59:21;;;;;;;6.20;4.40;;;;;;;16.63;100.00;94572.63;5085215;28;20050;-82
2023/05/22 15:01:49;;;;;;;4.55;3.47;;;;;;;15.82;100.00;94552.59;5696603;23;20052;-79
2023/05/22 15:06:50;;;;;;;3.38;2.90;;;;;;;15.44;100.00;94694.59;5984924;23;20009;-79
2023/05/22 15:34:39;;;;;;;3.25;3.05;;;;;;;14.68;100.00;94670.88;4784292;23;20097;-79
2023/05/22 15:37:35;;;;;;;4.30;2.30;;;;;;;14.06;100.00;94570.47;5014550;28;20070;-82
2023/05/22 15:51:15;;;;;;;2.80;2.55;;;;;;;13.83;100.00;94561.50;5448964;23;20042;-83
2023/05/22 16:02:30;;;;;;;3.58;3.28;;;;;;;14.58;100.00;94772.13;5921910;23;20152;-82
2023/05/22 16:04:56;;;;;;;3.75;3.45;;;;;;;14.51;100.00;94836.50;4990163;28;20057;-83
2023/05/22 16:07:21;;;;;;;4.13;3.83;;;;;;;14.32;100.00;94868.50;5030484;28;20038;-80
2023/05/22 16:09:49;;;;;;;3.97;3.33;;;;;;;14.34;100.00;94822.22;4994715;28;20026;-82
2023/05/22 16:12:14;;;;;;;3.83;2.92;;;;;;;14.55;100.00;94814.22;4995164;28;20026;-82
2023/05/22 16:14:40;;;;;;;5.20;3.80;;;;;;;14.44;100.00;94809.63;4971298;28;20244;-83
2023/05/22 16:17:05;;;;;;;3.72;3.38;;;;;;;14.21;100.00;94828.97;4964806;28;20042;-82
2023/05/22 16:19:32;;;;;;;3.95;3.63;;;;;;;14.41;100.00;94880.38;5002224;28;20037;-81
2023/05/22 16:21:58;;;;;;;5.07;3.47;;;;;;;14.43;100.00;94901.81;5001843;28;20030;-82
2023/05/22 16:24:24;;;;;;;4.55;3.75;;;;;;;14.49;100.00;94872.38;4997914;28;20030;-82
2023/05/22 16:26:49;;;;;;;4.30;4.00;;;;;;;14.69;100.00;94917.53;4957508;28;20562;-84
2023/05/22 16:29:19;;;;;;;4.25;3.95;;;;;;;14.69;100.00;94907.13;4942665;28;20038;-85
2023/05/22 16:31:44;;;;;;;4.43;3.92;;;;;;;14.72;100.00;94867.59;4945541;28;20037;-85
2023/05/22 16:34:10;;;;;;;3.90;3.60;;;;;;;14.63;100.00;94816.66;4983982;28;20065;-83
2023/05/22 16:36:35;;;;;;;7.75;4.13;;;;;;;14.61;100.00;94826.47;4998722;28;20057;-81
2023/05/22 16:39:01;;;;;;;4.97;3.42;;;;;;;14.53;100.00;94839.69;5194434;23;20046;-82
2023/05/22 16:41:26;;;;;;;5.78;3.35;;;;;;;14.60;100.00;94888.25;5019813;28;20041;-75
2023/05/22 16:43:52;;;;;;;4.60;3.80;;;;;;;14.73;100.00;94934.41;5014212;28;20032;-75
2023/05/22 16:46:18;;;;;;;5.70;3.55;;;;;;;14.64;100.00;94943.41;4991813;28;20112;-75
2023/05/22 16:48:43;;;;;;;4.97;3.20;;;;;;;14.53;100.00;94918.69;5015241;28;20025;-75
2023/05/22 16:51:09;;;;;;;2.83;2.60;;;;;;;14.60;100.00;94918.72;5011534;28;20096;-75